Time,TemperatureF,DewpointF,PressureIn,WindDirection,WindDirectionDegrees,WindSpeedMPH,WindSpeedGustMPH,Humidity,HourlyPrecipIn,Conditions,Clouds,dailyrainin,SoftwareType,DateUTC
2013-09-30 00:04:00,59.0,56.0,30.11,ESE,113,0.0,0.0,91,0.00,,,0.00,,2013-09-30 04:04:00,
2013-09-30 00:14:00,59.0,56.0,30.11,ESE,113,0.0,0.0,91,0.00,,,0.00,,2013-09-30 04:14:00,
2013-09-30 00:25:00,58.0,56.0,30.11,ESE,113,0.0,0.0,92,0.00,,,0.00,,2013-09-30 04:25:00,
2013-09-30 00:33:00,58.0,56.0,30.11,ESE,113,0.0,0.0,92,0.00,,,0.00,,2013-09-30 04:33:00,
2013-09-30 00:44:00,58.0,56.0,30.11,ESE,113,0.0,0.0,92,0.00,,,0.00,,2013-09-30 04:44:00,
2013-09-30 00:53:00,58.0,56.0,30.11,ESE,113,0.0,0.0,93,0.00,,,0.00,,2013-09-30 04:53:00,
2013-09-30 01:03:00,58.0,56.0,30.11,ESE,113,0.0,0.0,93,0.00,,,0.00,,2013-09-30 05:03:00,
2013-09-30 01:23:00,57.0,55.0,30.10,ESE,113,0.0,0.0,93,0.00,,,0.00,,2013-09-30 05:23:00,
2013-09-30 01:34:00,57.0,55.0,30.10,ESE,113,0.0,0.0,93,0.00,,,0.00,,2013-09-30 05:34:00,
2013-09-30 01:43:00,57.0,55.0,30.10,ESE,113,0.0,0.0,93,0.00,,,0.00,,2013-09-30 05:43:00,
2013-09-30 01:52:00,57.0,55.0,30.10,ESE,113,0.0,0.0,94,0.00,,,0.00,,2013-09-30 05:52:00,
2013-09-30 02:03:00,57.0,55.0,30.10,ESE,113,0.0,0.0,94,0.00,,,0.00,,2013-09-30 06:03:00,
2013-09-30 02:12:00,57.0,55.0,30.10,ESE,113,0.0,0.0,94,0.00,,,0.00,,2013-09-30 06:12:00,
2013-09-30 02:22:00,57.0,56.0,30.11,ESE,113,0.0,0.0,95,0.00,,,0.00,,2013-09-30 06:22:00,
2013-09-30 02:32:00,57.0,56.0,30.11,ESE,113,0.0,0.0,95,0.00,,,0.00,,2013-09-30 06:32:00,
2013-09-30 02:52:00,57.0,56.0,30.11,ESE,113,0.0,0.0,95,0.00,,,0.00,,2013-09-30 06:52:00,
2013-09-30 03:02:00,57.0,56.0,30.11,ESE,113,0.0,0.0,95,0.00,,,0.00,,2013-09-30 07:02:00,
2013-09-30 03:12:00,57.0,56.0,30.11,ESE,113,0.0,0.0,95,0.00,,,0.00,,2013-09-30 07:12:00,
2013-09-30 03:22:00,57.0,56.0,30.11,ESE,113,0.0,0.0,96,0.00,,,0.00,,2013-09-30 07:22:00,
2013-09-30 03:32:00,57.0,56.0,30.11,ESE,113,0.0,0.0,96,0.00,,,0.00,,2013-09-30 07:32:00,
2013-09-30 03:53:00,57.0,56.0,30.11,ESE,113,0.0,0.0,96,0.00,,,0.00,,2013-09-30 07:53:00,
2013-09-30 04:02:00,57.0,56.0,30.11,ESE,113,0.0,0.0,96,0.00,,,0.00,,2013-09-30 08:02:00,
2013-09-30 04:12:00,57.0,56.0,30.11,ESE,113,0.0,0.0,96,0.00,,,0.00,,2013-09-30 08:12:00,
2013-09-30 04:22:00,57.0,56.0,30.10,ESE,113,0.0,0.0,96,0.00,,,0.00,,2013-09-30 08:22:00,
2013-09-30 04:32:00,57.0,56.0,30.10,ESE,113,0.0,0.0,96,0.00,,,0.00,,2013-09-30 08:32:00,
2013-09-30 04:52:00,56.0,55.0,30.09,ESE,113,0.0,0.0,96,0.00,,,0.00,,2013-09-30 08:52:00,
2013-09-30 05:02:00,56.0,55.0,30.09,ESE,113,0.0,0.0,96,0.00,,,0.00,,2013-09-30 09:02:00,
2013-09-30 05:12:00,56.0,55.0,30.09,ESE,113,0.0,0.0,96,0.00,,,0.00,,2013-09-30 09:12:00,
2013-09-30 05:22:00,56.0,55.0,30.10,ESE,113,0.0,0.0,96,0.00,,,0.00,,2013-09-30 09:22:00,
2013-09-30 05:33:00,56.0,55.0,30.10,ESE,113,0.0,0.0,96,0.00,,,0.00,,2013-09-30 09:33:00,
2013-09-30 05:54:00,56.0,55.0,30.11,ESE,113,0.0,0.0,96,0.00,,,0.00,,2013-09-30 09:54:00,
2013-09-30 06:03:00,56.0,55.0,30.11,ESE,113,0.0,0.0,96,0.00,,,0.00,,2013-09-30 10:03:00,
2013-09-30 06:13:00,56.0,55.0,30.11,ESE,113,0.0,0.0,96,0.00,,,0.00,,2013-09-30 10:13:00,
2013-09-30 06:23:00,56.0,55.0,30.11,ESE,113,0.0,0.0,96,0.00,,,0.00,,2013-09-30 10:23:00,
2013-09-30 06:32:00,56.0,55.0,30.11,ESE,113,0.0,0.0,96,0.00,,,0.00,,2013-09-30 10:32:00,
2013-09-30 06:53:00,55.0,54.0,30.12,ESE,113,0.0,0.0,96,0.00,,,0.00,,2013-09-30 10:53:00,
2013-09-30 07:03:00,55.0,54.0,30.12,ESE,113,0.0,0.0,96,0.00,,,0.00,,2013-09-30 11:03:00,
2013-09-30 07:12:00,55.0,54.0,30.12,ESE,113,0.0,0.0,96,0.00,,,0.00,,2013-09-30 11:12:00,
2013-09-30 07:22:00,54.0,53.0,30.12,ESE,113,0.0,0.0,96,0.00,,,0.00,,2013-09-30 11:22:00,
2013-09-30 07:33:00,54.0,53.0,30.12,ESE,113,0.0,0.0,96,0.00,,,0.00,,2013-09-30 11:33:00,
2013-09-30 07:52:00,54.0,53.0,30.14,ESE,113,0.0,0.0,97,0.00,,,0.00,,2013-09-30 11:52:00,
2013-09-30 08:02:00,54.0,53.0,30.14,ESE,113,0.0,0.0,97,0.00,,,0.00,,2013-09-30 12:02:00,
2013-09-30 08:12:00,54.0,53.0,30.14,ESE,113,0.0,0.0,97,0.00,,,0.00,,2013-09-30 12:12:00,
2013-09-30 08:22:00,54.0,53.0,30.14,ESE,113,0.0,0.0,97,0.00,,,0.00,,2013-09-30 12:22:00,
2013-09-30 08:32:00,54.0,53.0,30.14,ESE,113,0.0,0.0,97,0.00,,,0.00,,2013-09-30 12:32:00,
2013-09-30 08:52:00,55.0,54.0,30.15,ESE,113,0.0,0.0,97,0.00,,,0.00,,2013-09-30 12:52:00,
2013-09-30 09:12:00,55.0,54.0,30.15,ESE,113,0.0,0.0,97,0.00,,,0.00,,2013-09-30 13:12:00,
2013-09-30 09:22:00,56.0,55.0,30.16,ESE,113,0.0,0.0,98,0.00,,,0.00,,2013-09-30 13:22:00,
2013-09-30 09:42:00,56.0,55.0,30.16,ESE,113,0.0,0.0,98,0.00,,,0.00,,2013-09-30 13:42:00,
2013-09-30 09:52:00,59.0,58.0,30.15,ESE,113,0.0,0.0,98,0.00,,,0.00,,2013-09-30 13:52:00,
2013-09-30 10:02:00,59.0,58.0,30.15,ESE,113,0.0,0.0,98,0.00,,,0.00,,2013-09-30 14:02:00,
2013-09-30 10:11:00,59.0,58.0,30.15,ESE,113,0.0,0.0,98,0.00,,,0.00,,2013-09-30 14:11:00,
2013-09-30 10:22:00,63.0,59.0,30.16,ESE,123,0.0,2.0,86,0.00,,,0.00,,2013-09-30 14:22:00,
2013-09-30 10:32:00,63.0,59.0,30.16,ESE,123,0.0,2.0,86,0.00,,,0.00,,2013-09-30 14:32:00,
2013-09-30 10:33:00,68.0,60.0,30.16,East,83,0.0,1.0,75,0.00,,,0.00,,2013-09-30 14:33:00,
2013-09-30 10:42:00,63.0,59.0,30.16,ESE,123,0.0,2.0,86,0.00,,,0.00,,2013-09-30 14:42:00,
2013-09-30 10:53:00,68.0,60.0,30.16,East,83,0.0,1.0,75,0.00,,,0.00,,2013-09-30 14:53:00,
2013-09-30 11:02:00,68.0,60.0,30.16,East,83,0.0,1.0,75,0.00,,,0.00,,2013-09-30 15:02:00,
2013-09-30 11:12:00,68.0,60.0,30.16,East,83,0.0,1.0,75,0.00,,,0.00,,2013-09-30 15:12:00,
2013-09-30 11:23:00,68.0,60.0,30.16,East,83,0.0,1.0,75,0.00,,,0.00,,2013-09-30 15:23:00,
2013-09-30 11:54:00,72.0,59.0,30.16,SSW,198,0.0,5.0,64,0.00,,,0.00,,2013-09-30 15:54:00,
2013-09-30 12:05:00,72.0,59.0,30.16,SSW,198,0.0,5.0,64,0.00,,,0.00,,2013-09-30 16:05:00,
2013-09-30 12:14:00,72.0,59.0,30.16,SSW,198,0.0,5.0,64,0.00,,,0.00,,2013-09-30 16:14:00,
2013-09-30 12:24:00,75.0,59.0,30.15,East,100,0.0,3.0,58,0.00,,,0.00,,2013-09-30 16:24:00,
2013-09-30 12:34:00,75.0,59.0,30.15,East,100,0.0,3.0,58,0.00,,,0.00,,2013-09-30 16:34:00,
2013-09-30 12:44:00,75.0,59.0,30.15,East,100,0.0,3.0,58,0.00,,,0.00,,2013-09-30 16:44:00,
2013-09-30 12:54:00,74.0,59.0,30.15,ENE,74,0.0,3.0,60,0.00,,,0.00,,2013-09-30 16:54:00,
2013-09-30 13:04:00,74.0,59.0,30.15,ENE,74,0.0,3.0,60,0.00,,,0.00,,2013-09-30 17:04:00,
2013-09-30 13:13:00,74.0,59.0,30.15,ENE,74,0.0,3.0,60,0.00,,,0.00,,2013-09-30 17:13:00,
2013-09-30 13:23:00,75.0,59.0,30.14,South,186,0.0,2.0,57,0.00,,,0.00,,2013-09-30 17:23:00,
2013-09-30 13:34:00,75.0,59.0,30.14,South,186,0.0,2.0,57,0.00,,,0.00,,2013-09-30 17:34:00,
2013-09-30 13:53:00,74.0,59.0,30.14,ENE,76,0.0,1.0,60,0.00,,,0.00,,2013-09-30 17:53:00,
2013-09-30 14:02:00,74.0,59.0,30.14,ENE,76,0.0,1.0,60,0.00,,,0.00,,2013-09-30 18:02:00,
2013-09-30 14:12:00,74.0,59.0,30.14,ENE,76,0.0,1.0,60,0.00,,,0.00,,2013-09-30 18:12:00,
2013-09-30 14:22:00,73.0,59.0,30.11,ESE,105,0.0,1.0,62,0.00,,,0.00,,2013-09-30 18:22:00,
2013-09-30 14:32:00,73.0,59.0,30.11,ESE,105,0.0,1.0,62,0.00,,,0.00,,2013-09-30 18:32:00,
2013-09-30 14:53:00,73.0,58.0,30.10,ESE,123,0.0,2.0,59,0.00,,,0.00,,2013-09-30 18:53:00,
2013-09-30 15:02:00,73.0,58.0,30.10,ESE,123,0.0,2.0,59,0.00,,,0.00,,2013-09-30 19:02:00,
2013-09-30 15:12:00,73.0,58.0,30.10,ESE,123,0.0,2.0,59,0.00,,,0.00,,2013-09-30 19:12:00,
2013-09-30 15:22:00,73.0,59.0,30.08,SE,140,0.0,1.0,61,0.00,,,0.00,,2013-09-30 19:22:00,
2013-09-30 15:32:00,73.0,59.0,30.08,SE,140,0.0,1.0,61,0.00,,,0.00,,2013-09-30 19:32:00,
2013-09-30 15:42:00,73.0,59.0,30.08,SE,140,0.0,1.0,61,0.00,,,0.00,,2013-09-30 19:42:00,
2013-09-30 15:53:00,73.0,58.0,30.08,ESE,103,0.0,1.0,60,0.00,,,0.00,,2013-09-30 19:53:00,
2013-09-30 16:02:00,73.0,58.0,30.08,ESE,103,0.0,1.0,60,0.00,,,0.00,,2013-09-30 20:02:00,
2013-09-30 16:13:00,73.0,58.0,30.08,ESE,103,0.0,1.0,60,0.00,,,0.00,,2013-09-30 20:13:00,
2013-09-30 16:23:00,73.0,59.0,30.07,ESE,103,0.0,0.0,62,0.00,,,0.00,,2013-09-30 20:23:00,
2013-09-30 16:33:00,73.0,59.0,30.07,ESE,103,0.0,0.0,62,0.00,,,0.00,,2013-09-30 20:33:00,
2013-09-30 16:53:00,73.0,59.0,30.07,ESE,103,0.0,1.0,61,0.00,,,0.00,,2013-09-30 20:53:00,
2013-09-30 17:02:00,73.0,59.0,30.07,ESE,103,0.0,1.0,61,0.00,,,0.00,,2013-09-30 21:02:00,
2013-09-30 17:11:00,73.0,59.0,30.07,ESE,103,0.0,1.0,61,0.00,,,0.00,,2013-09-30 21:11:00,
2013-09-30 17:23:00,73.0,58.0,30.07,ESE,103,0.0,0.0,59,0.00,,,0.00,,2013-09-30 21:23:00,
2013-09-30 17:34:00,73.0,58.0,30.07,ESE,103,0.0,0.0,59,0.00,,,0.00,,2013-09-30 21:34:00,
2013-09-30 17:54:00,73.0,58.0,30.07,ESE,103,0.0,1.0,59,0.00,,,0.00,,2013-09-30 21:54:00,
2013-09-30 18:03:00,73.0,58.0,30.07,ESE,103,0.0,1.0,59,0.00,,,0.00,,2013-09-30 22:03:00,
2013-09-30 18:24:00,72.0,58.0,30.08,ESE,103,0.0,1.0,61,0.00,,,0.00,,2013-09-30 22:24:00,
2013-09-30 18:34:00,72.0,58.0,30.08,ESE,103,0.0,1.0,61,0.00,,,0.00,,2013-09-30 22:34:00,
2013-09-30 18:44:00,72.0,58.0,30.08,ESE,103,0.0,1.0,61,0.00,,,0.00,,2013-09-30 22:44:00,
2013-09-30 18:54:00,72.0,60.0,30.09,ESE,103,0.0,0.0,65,0.00,,,0.00,,2013-09-30 22:54:00,
2013-09-30 19:03:00,72.0,60.0,30.09,ESE,103,0.0,0.0,65,0.00,,,0.00,,2013-09-30 23:03:00,
2013-09-30 19:12:00,72.0,60.0,30.09,ESE,103,0.0,0.0,65,0.00,,,0.00,,2013-09-30 23:12:00,
2013-09-30 19:23:00,70.0,60.0,30.09,ESE,103,0.0,0.0,71,0.00,,,0.00,,2013-09-30 23:23:00,
2013-09-30 19:34:00,70.0,60.0,30.09,ESE,103,0.0,0.0,71,0.00,,,0.00,,2013-09-30 23:34:00,
2013-09-30 19:54:00,68.0,60.0,30.09,ESE,103,0.0,0.0,75,0.00,,,0.00,,2013-09-30 23:54:00,
2013-09-30 20:03:00,68.0,60.0,30.09,ESE,103,0.0,0.0,75,0.00,,,0.00,,2013-10-01 00:03:00,
2013-09-30 20:12:00,68.0,60.0,30.09,ESE,103,0.0,0.0,75,0.00,,,0.00,,2013-10-01 00:12:00,
2013-09-30 20:23:00,66.0,60.0,30.10,ESE,103,0.0,0.0,80,0.00,,,0.00,,2013-10-01 00:23:00,
2013-09-30 20:32:00,66.0,60.0,30.10,ESE,103,0.0,0.0,80,0.00,,,0.00,,2013-10-01 00:32:00,
2013-09-30 20:43:00,66.0,60.0,30.10,ESE,103,0.0,0.0,80,0.00,,,0.00,,2013-10-01 00:43:00,
2013-09-30 20:52:00,66.0,60.0,30.10,ESE,103,0.0,0.0,80,0.00,,,0.00,,2013-10-01 00:52:00,
2013-09-30 21:52:00,62.0,58.0,30.12,ESE,103,0.0,0.0,88,0.00,,,0.00,,2013-10-01 01:52:00,
2013-09-30 22:02:00,62.0,58.0,30.12,ESE,103,0.0,0.0,88,0.00,,,0.00,,2013-10-01 02:02:00,
2013-09-30 22:12:00,62.0,58.0,30.12,ESE,103,0.0,0.0,88,0.00,,,0.00,,2013-10-01 02:12:00,
2013-09-30 22:22:00,61.0,58.0,30.13,ESE,103,0.0,0.0,90,0.00,,,0.00,,2013-10-01 02:22:00,
2013-09-30 22:33:00,61.0,58.0,30.13,ESE,103,0.0,0.0,90,0.00,,,0.00,,2013-10-01 02:33:00,
2013-09-30 22:43:00,61.0,58.0,30.13,ESE,103,0.0,0.0,90,0.00,,,0.00,,2013-10-01 02:43:00,
2013-09-30 22:52:00,61.0,58.0,30.14,ESE,103,0.0,0.0,90,0.00,,,0.00,,2013-10-01 02:52:00,
2013-09-30 23:03:00,61.0,58.0,30.14,ESE,103,0.0,0.0,90,0.00,,,0.00,,2013-10-01 03:03:00,
2013-09-30 23:22:00,61.0,58.0,30.14,ESE,103,0.0,0.0,90,0.00,,,0.00,,2013-10-01 03:22:00,
2013-09-30 23:34:00,61.0,58.0,30.14,ESE,103,0.0,0.0,90,0.00,,,0.00,,2013-10-01 03:34:00,
2013-09-30 23:55:00,60.0,57.0,30.14,ESE,103,0.0,0.0,91,0.00,,,0.00,,2013-10-01 03:55:00,